Time;durP1;ratioP1;P1;durP2;ratioP2;P2;SDS_P1;SDS_P2;PMS_P1;PMS_P2;Temp;Humidity;BMP_temperature;BMP_pressure;BME280_temperature;BME280_humidity;BME280_pressure;Samples;Min_cycle;Max_cycle;Signal;HPM_P1;HPM_P2
2023/12/06 00:01:52;;;;;;;;;;;;;;;;;;4939702;29;19923;-82
2023/12/06 00:04:18;;;;;;;;;;;;;;;;;;4940289;29;19911;-83
2023/12/06 00:06:43;;;;;;;;;;;;;;;;;;4953699;29;19942;-81
2023/12/06 00:09:09;;;;;;;;;;;;;;;;;;4949421;29;19990;-85
2023/12/06 00:11:34;;;;;;;;;;;;;;;;;;4964547;28;20006;-85
2023/12/06 00:14:00;;;;;;;;;;;;;;;;;;4944875;29;20014;-85
2023/12/06 00:16:27;;;;;;;;;;;;;;;;;;4947066;29;19926;-84
2023/12/06 00:18:55;;;;;;;;;;;;;;;;;;4947050;29;19941;-84
2023/12/06 00:21:20;;;;;;;;;;;;;;;;;;4930438;29;19925;-83
2023/12/06 00:23:46;;;;;;;;;;;;;;;;;;4937155;29;20227;-84
2023/12/06 00:26:11;;;;;;;;;;;;;;;;;;4910915;29;20026;-83
2023/12/06 00:28:36;;;;;;;;;;;;;;;;;;4909924;29;19938;-85
2023/12/06 00:31:02;;;;;;;;;;;;;;;;;;4938385;29;19927;-85
2023/12/06 00:33:28;;;;;;;;;;;;;;;;;;4927993;29;19942;-85
2023/12/06 00:35:55;;;;;;;;;;;;;;;;;;4949743;29;20306;-84
2023/12/06 00:38:20;;;;;;;;;;;;;;;;;;4918921;29;19919;-84
2023/12/06 00:40:45;;;;;;;;;;;;;;;;;;4913062;29;19915;-84
2023/12/06 00:43:11;;;;;;;;;;;;;;;;;;4920831;29;20221;-85
2023/12/06 00:45:37;;;;;;;;;;;;;;;;;;4932777;29;19967;-82
2023/12/06 00:48:02;;;;;;;;;;;;;;;;;;4916502;29;19982;-83
2023/12/06 00:50:27;;;;;;;;;;;;;;;;;;4952532;29;20384;-85
2023/12/06 00:52:53;;;;;;;;;;;;;;;;;;4965014;28;19915;-82
2023/12/06 00:55:18;;;;;;;;;;;;;;;;;;4918929;29;20034;-84
2023/12/06 00:57:43;;;;;;;;;;;;;;;;;;4958958;29;19940;-85
2023/12/06 01:00:09;;;;;;;;;;;;;;;;;;4914769;29;19990;-82
2023/12/06 01:02:34;;;;;;;;;;;;;;;;;;4918628;29;19971;-82
2023/12/06 01:05:02;;;;;;;;;;;;;;;;;;4930496;29;19915;-84
2023/12/06 01:07:27;;;;;;;;;;;;;;;;;;4927892;29;20019;-83
2023/12/06 01:09:53;;;;;;;;;;;;;;;;;;4924149;29;19918;-82
2023/12/06 01:12:20;;;;;;;;;;;;;;;;;;4893986;29;19915;-83
2023/12/06 01:14:45;;;;;;;;;;;;;;;;;;4895180;29;19915;-84
2023/12/06 01:17:11;;;;;;;;;;;;;;;;;;4896363;29;19954;-85
2023/12/06 01:19:36;;;;;;;;;;;;;;;;;;4916921;29;19922;-82
2023/12/06 01:22:01;;;;;;;;;;;;;;;;;;4927264;29;20237;-84
2023/12/06 01:24:26;;;;;;;;;;;;;;;;;;4898916;29;20229;-82
2023/12/06 01:26:52;;;;;;;;;;;;;;;;;;4900230;29;19915;-85
2023/12/06 01:29:17;;;;;;;;;;;;;;;;;;4930780;29;19927;-85
2023/12/06 01:31:45;;;;;;;;;;;;;;;;;;4910238;29;19947;-82
2023/12/06 01:34:14;;;;;;;;;;;;;;;;;;4903266;29;19916;-82
2023/12/06 01:36:39;;;;;;;;;;;;;;;;;;4936876;29;19986;-84
2023/12/06 01:39:04;;;;;;;;;;;;;;;;;;4900002;29;19927;-84
2023/12/06 01:41:30;;;;;;;;;;;;;;;;;;4913819;29;19987;-83
2023/12/06 01:43:56;;;;;;;;;;;;;;;;;;4894521;29;19971;-85
2023/12/06 01:46:22;;;;;;;;;;;;;;;;;;4912011;29;20021;-83
2023/12/06 01:48:48;;;;;;;;;;;;;;;;;;4895180;29;19923;-84
2023/12/06 01:51:13;;;;;;;;;;;;;;;;;;4911941;29;19919;-84
2023/12/06 01:53:44;;;;;;;;;;;;;;;;;;4894406;29;19922;-85
2023/12/06 01:56:09;;;;;;;;;;;;;;;;;;4917305;29;19967;-84
2023/12/06 01:58:35;;;;;;;;;;;;;;;;;;4920070;29;19974;-86
2023/12/06 02:01:00;;;;;;;;;;;;;;;;;;4918257;29;19922;-85
2023/12/06 02:03:26;;;;;;;;;;;;;;;;;;4934125;29;19957;-82
2023/12/06 02:05:52;;;;;;;;;;;;;;;;;;4955344;29;19977;-81
2023/12/06 02:08:17;;;;;;;;;;;;;;;;;;4966473;29;19923;-81
2023/12/06 02:10:42;;;;;;;;;;;;;;;;;;4921059;29;19986;-82
2023/12/06 02:13:08;;;;;;;;;;;;;;;;;;4950848;29;19926;-81
2023/12/06 02:15:33;;;;;;;;;;;;;;;;;;4947589;29;19922;-82
2023/12/06 02:17:58;;;;;;;;;;;;;;;;;;4923016;29;19915;-83
2023/12/06 02:20:24;;;;;;;;;;;;;;;;;;4932727;29;19915;-83
2023/12/06 02:22:50;;;;;;;;;;;;;;;;;;4933164;29;19915;-83
2023/12/06 02:25:16;;;;;;;;;;;;;;;;;;4948433;29;19949;-82
2023/12/06 02:27:41;;;;;;;;;;;;;;;;;;4933678;29;19966;-83
2023/12/06 02:30:07;;;;;;;;;;;;;;;;;;4961785;28;20057;-82
2023/12/06 02:32:32;;;;;;;;;;;;;;;;;;4949972;29;20337;-81
2023/12/06 02:34:57;;;;;;;;;;;;;;;;;;4917048;29;19925;-83
2023/12/06 02:37:23;;;;;;;;;;;;;;;;;;4948590;29;19982;-82
2023/12/06 02:39:51;;;;;;;;;;;;;;;;;;4951527;29;19950;-83
2023/12/06 02:42:17;;;;;;;;;;;;;;;;;;4929206;29;19918;-83
2023/12/06 02:44:42;;;;;;;;;;;;;;;;;;4941958;29;19962;-86
2023/12/06 02:47:08;;;;;;;;;;;;;;;;;;4943720;29;19925;-83
2023/12/06 02:49:33;;;;;;;;;;;;;;;;;;4961826;28;19925;-81
2023/12/06 02:51:59;;;;;;;;;;;;;;;;;;4947468;29;19954;-83
2023/12/06 02:54:24;;;;;;;;;;;;;;;;;;4933130;29;20396;-83
2023/12/06 02:56:49;;;;;;;;;;;;;;;;;;4949164;29;19915;-84
2023/12/06 02:59:15;;;;;;;;;;;;;;;;;;4945486;29;20001;-83
2023/12/06 03:01:40;;;;;;;;;;;;;;;;;;4934021;29;19922;-84
2023/12/06 03:04:07;;;;;;;;;;;;;;;;;;4944088;29;19914;-82
2023/12/06 03:06:33;;;;;;;;;;;;;;;;;;4913581;29;20005;-83
2023/12/06 03:08:58;;;;;;;;;;;;;;;;;;4912263;29;19962;-83
2023/12/06 03:11:23;;;;;;;;;;;;;;;;;;4945949;29;19999;-83
2023/12/06 03:13:49;;;;;;;;;;;;;;;;;;4958341;28;19930;-83
2023/12/06 03:16:15;;;;;;;;;;;;;;;;;;4941878;29;19929;-84
2023/12/06 03:18:41;;;;;;;;;;;;;;;;;;4939605;29;19974;-84
2023/12/06 03:21:06;;;;;;;;;;;;;;;;;;4925060;29;19919;-86
2023/12/06 03:23:32;;;;;;;;;;;;;;;;;;4911543;29;20316;-82
2023/12/06 03:25:57;;;;;;;;;;;;;;;;;;4908225;29;19923;-82
2023/12/06 03:28:22;;;;;;;;;;;;;;;;;;4936131;29;19922;-85
2023/12/06 03:30:47;;;;;;;;;;;;;;;;;;4935552;29;20009;-83
2023/12/06 03:33:13;;;;;;;;;;;;;;;;;;4922135;29;19915;-84
2023/12/06 03:35:38;;;;;;;;;;;;;;;;;;4919541;29;19927;-84
2023/12/06 03:38:03;;;;;;;;;;;;;;;;;;4920420;29;19922;-83
2023/12/06 03:40:29;;;;;;;;;;;;;;;;;;4935883;29;20245;-84
2023/12/06 03:42:54;;;;;;;;;;;;;;;;;;4904665;29;19927;-82
2023/12/06 03:45:19;;;;;;;;;;;;;;;;;;4903886;29;19919;-83
2023/12/06 03:47:45;;;;;;;;;;;;;;;;;;4919708;29;20021;-83
2023/12/06 03:50:10;;;;;;;;;;;;;;;;;;4919366;29;20009;-81
2023/12/06 03:52:35;;;;;;;;;;;;;;;;;;4906523;29;19915;-84
2023/12/06 03:55:04;;;;;;;;;;;;;;;;;;4938468;29;20217;-85
2023/12/06 03:57:29;;;;;;;;;;;;;;;;;;4925584;29;19959;-84
2023/12/06 03:59:54;;;;;;;;;;;;;;;;;;4929835;29;20066;-81
2023/12/06 04:02:20;;;;;;;;;;;;;;;;;;4930550;29;19934;-82
2023/12/06 04:04:45;;;;;;;;;;;;;;;;;;4932886;29;19926;-81
2023/12/06 04:07:10;;;;;;;;;;;;;;;;;;4942749;29;19974;-84
2023/12/06 04:09:36;;;;;;;;;;;;;;;;;;4924332;29;19915;-86
2023/12/06 04:12:02;;;;;;;;;;;;;;;;;;4927108;29;19920;-85
2023/12/06 04:14:28;;;;;;;;;;;;;;;;;;4933098;29;19915;-83
2023/12/06 04:16:53;;;;;;;;;;;;;;;;;;4932934;29;19922;-82
2023/12/06 04:19:18;;;;;;;;;;;;;;;;;;4921028;29;19914;-85
2023/12/06 04:21:44;;;;;;;;;;;;;;;;;;4929923;29;19990;-82
2023/12/06 04:24:09;;;;;;;;;;;;;;;;;;4922531;29;19911;-84
2023/12/06 04:26:34;;;;;;;;;;;;;;;;;;4940092;29;19915;-82
2023/12/06 04:28:59;;;;;;;;;;;;;;;;;;4953314;29;19931;-83
2023/12/06 04:31:25;;;;;;;;;;;;;;;;;;4934909;29;19943;-82
2023/12/06 04:33:50;;;;;;;;;;;;;;;;;;4953241;29;20173;-82
2023/12/06 04:36:15;;;;;;;;;;;;;;;;;;4950871;29;20035;-82
2023/12/06 04:38:41;;;;;;;;;;;;;;;;;;4928901;29;19919;-83
2023/12/06 04:41:06;;;;;;;;;;;;;;;;;;4927283;29;19926;-84
2023/12/06 04:43:31;;;;;;;;;;;;;;;;;;4946666;29;19918;-84
2023/12/06 04:45:57;;;;;;;;;;;;;;;;;;4949926;29;19929;-81
2023/12/06 04:48:23;;;;;;;;;;;;;;;;;;4927707;29;19919;-85
2023/12/06 04:50:49;;;;;;;;;;;;;;;;;;4923991;29;19969;-83
2023/12/06 04:53:18;;;;;;;;;;;;;;;;;;4927116;29;19923;-84
2023/12/06 04:55:43;;;;;;;;;;;;;;;;;;4927891;29;19933;-85
2023/12/06 04:58:08;;;;;;;;;;;;;;;;;;4911866;29;20493;-83
2023/12/06 05:00:34;;;;;;;;;;;;;;;;;;4906086;29;19915;-83
2023/12/06 05:02:59;;;;;;;;;;;;;;;;;;4892735;29;19915;-83
2023/12/06 05:05:24;;;;;;;;;;;;;;;;;;4920564;29;19925;-83
2023/12/06 05:07:50;;;;;;;;;;;;;;;;;;4925882;29;19997;-84
2023/12/06 05:10:23;;;;;;;;;;;;;;;;;;4902073;29;21924;-84
2023/12/06 05:12:48;;;;;;;;;;;;;;;;;;4910733;29;19914;-84
2023/12/06 05:15:13;;;;;;;;;;;;;;;;;;4931058;29;20100;-84
2023/12/06 05:17:39;;;;;;;;;;;;;;;;;;4914918;29;19978;-82
2023/12/06 05:20:04;;;;;;;;;;;;;;;;;;4897304;29;19919;-83
2023/12/06 05:22:29;;;;;;;;;;;;;;;;;;4907136;29;19919;-83
2023/12/06 05:24:55;;;;;;;;;;;;;;;;;;4888375;29;19915;-84
2023/12/06 05:27:21;;;;;;;;;;;;;;;;;;4906210;29;20079;-84
2023/12/06 05:29:47;;;;;;;;;;;;;;;;;;4926381;29;19971;-83
2023/12/06 05:32:12;;;;;;;;;;;;;;;;;;4914023;29;19915;-85
2023/12/06 05:34:37;;;;;;;;;;;;;;;;;;4908921;29;19927;-85
2023/12/06 05:37:03;;;;;;;;;;;;;;;;;;4909861;29;19923;-84
2023/12/06 05:39:28;;;;;;;;;;;;;;;;;;4922788;29;19945;-81
2023/12/06 05:41:53;;;;;;;;;;;;;;;;;;4924498;29;20007;-84
2023/12/06 05:44:21;;;;;;;;;;;;;;;;;;4904758;29;19930;-84
2023/12/06 05:46:46;;;;;;;;;;;;;;;;;;4910338;29;19926;-85
2023/12/06 05:49:12;;;;;;;;;;;;;;;;;;4926907;29;19919;-86
2023/12/06 05:57:50;;;;;;;;;;;;;;;;;;4881308;29;20254;-83
2023/12/06 06:06:19;;;;;;;;;;;;;;;;;;4882142;29;19924;-83
2023/12/06 06:12:14;;;;;;;;;;;;;;;;;;4912186;29;19922;-83
2023/12/06 06:14:42;;;;;;;;;;;;;;;;;;4940418;29;19915;-83
2023/12/06 06:17:07;;;;;;;;;;;;;;;;;;4923806;29;20373;-83
2023/12/06 06:19:32;;;;;;;;;;;;;;;;;;4937504;29;19922;-85
2023/12/06 06:28:01;;;;;;;;;;;;;;;;;;4923836;29;19919;-84
2023/12/06 06:30:26;;;;;;;;;;;;;;;;;;4939687;29;19950;-83
2023/12/06 06:32:51;;;;;;;;;;;;;;;;;;4938760;29;19943;-85
2023/12/06 06:35:17;;;;;;;;;;;;;;;;;;4933837;29;19922;-86
2023/12/06 06:37:50;;;;;;;;;;;;;;;;;;4900017;29;19926;-84
2023/12/06 06:40:15;;;;;;;;;;;;;;;;;;4882354;29;19952;-86
2023/12/06 06:42:45;;;;;;;;;;;;;;;;;;4899259;29;19930;-85
2023/12/06 06:45:11;;;;;;;;;;;;;;;;;;4901415;29;19915;-84
2023/12/06 06:47:36;;;;;;;;;;;;;;;;;;4887174;29;19931;-83
2023/12/06 06:50:15;;;;;;;;;;;;;;;;;;4888783;29;19979;-82
2023/12/06 06:59:24;;;;;;;;;;;;;;;;;;4888438;29;19930;-84
2023/12/06 07:01:56;;;;;;;;;;;;;;;;;;4908734;29;19924;-83
2023/12/06 07:10:34;;;;;;;;;;;;;;;;;;4900104;29;19982;-84
2023/12/06 07:22:26;;;;;;;;;;;;;;;;;;4932958;29;20005;-84
2023/12/06 07:24:54;;;;;;;;;;;;;;;;;;4910222;29;19934;-86
2023/12/06 07:27:21;;;;;;;;;;;;;;;;;;4920973;29;19938;-85
2023/12/06 07:29:47;;;;;;;;;;;;;;;;;;4915474;29;20452;-85
2023/12/06 07:32:15;;;;;;;;;;;;;;;;;;4921155;29;19918;-84
2023/12/06 07:34:41;;;;;;;;;;;;;;;;;;4938426;29;19925;-84
2023/12/06 07:37:17;;;;;;;;;;;;;;;;;;4922140;29;19918;-85
2023/12/06 07:46:17;;;;;;;;;;;;;;;;;;4943063;29;19922;-86
2023/12/06 07:49:05;;;;;;;;;;;;;;;;;;4937846;29;19979;-85
2023/12/06 08:01:05;;;;;;;;;;;;;;;;;;4909815;29;20038;-64
2023/12/06 08:03:31;;;;;;;;;;;;;;;;;;4895490;29;20343;-64
2023/12/06 08:05:59;;;;;;;;;;;;;;;;;;4912042;29;19923;-65
2023/12/06 08:08:24;;;;;;;;;;;;;;;;;;4877322;29;19947;-63
2023/12/06 08:10:50;;;;;;;;;;;;;;;;;;4911039;29;20402;-66
2023/12/06 08:13:18;;;;;;;;;;;;;;;;;;4880655;29;19957;-64
2023/12/06 08:15:43;;;;;;;;;;;;;;;;;;4910845;29;20006;-65
2023/12/06 08:18:11;;;;;;;;;;;;;;;;;;4906121;29;20398;-63
2023/12/06 08:20:37;;;;;;;;;;;;;;;;;;4894770;29;20592;-64
2023/12/06 08:23:02;;;;;;;;;;;;;;;;;;4885950;29;20358;-64
2023/12/06 08:25:32;;;;;;;;;;;;;;;;;;4927802;28;19923;-64
2023/12/06 08:28:04;;;;;;;;;;;;;;;;;;4930630;28;20570;-64
2023/12/06 08:30:33;;;;;;;;;;;;;;;;;;4910029;29;19925;-64
2023/12/06 08:32:59;;;;;;;;;;;;;;;;;;4941474;28;20243;-64
2023/12/06 08:35:24;;;;;;;;;;;;;;;;;;4913355;28;20546;-64
2023/12/06 08:37:52;;;;;;;;;;;;;;;;;;4923567;28;20403;-65
2023/12/06 08:40:17;;;;;;;;;;;;;;;;;;4912067;28;20021;-64
2023/12/06 08:42:45;;;;;;;;;;;;;;;;;;4912346;29;19926;-66
2023/12/06 08:45:13;;;;;;;;;;;;;;;;;;4912502;28;19918;-66
2023/12/06 08:47:40;;;;;;;;;;;;;;;;;;4911255;29;19934;-67
2023/12/06 08:50:06;;;;;;;;;;;;;;;;;;4912500;28;19926;-66
2023/12/06 08:52:35;;;;;;;;;;;;;;;;;;4931317;28;20001;-66
2023/12/06 08:55:03;;;;;;;;;;;;;;;;;;4940065;28;19969;-65
2023/12/06 08:57:33;;;;;;;;;;;;;;;;;;4931411;28;19918;-66
2023/12/06 09:00:03;;;;;;;;;;;;;;;;;;4923133;28;19927;-67
2023/12/06 09:02:31;;;;;;;;;;;;;;;;;;4913286;28;19926;-65
2023/12/06 09:04:59;;;;;;;;;;;;;;;;;;4912352;29;20363;-66
2023/12/06 09:07:25;;;;;;;;;;;;;;;;;;4910017;28;19919;-65
2023/12/06 09:09:50;;;;;;;;;;;;;;;;;;4923537;28;19918;-66
2023/12/06 09:12:15;;;;;;;;;;;;;;;;;;4931928;28;19973;-67
2023/12/06 09:14:43;;;;;;;;;;;;;;;;;;4939340;28;19929;-65
2023/12/06 09:17:11;;;;;;;;;;;;;;;;;;4924892;28;19968;-66
2023/12/06 09:19:37;;;;;;;;;;;;;;;;;;4898308;28;20004;-66
2023/12/06 09:22:03;;;;;;;;;;;;;;;;;;4900010;29;19918;-66
2023/12/06 09:24:28;;;;;;;;;;;;;;;;;;4909764;29;20600;-67
2023/12/06 09:26:53;;;;;;;;;;;;;;;;;;4924758;28;20479;-66
2023/12/06 09:29:19;;;;;;;;;;;;;;;;;;4943377;28;20041;-66
2023/12/06 09:31:46;;;;;;;;;;;;;;;;;;4944093;28;19925;-68
2023/12/06 09:34:12;;;;;;;;;;;;;;;;;;4912459;29;19918;-67
2023/12/06 09:36:39;;;;;;;;;;;;;;;;;;4929973;28;19922;-68
2023/12/06 09:39:04;;;;;;;;;;;;;;;;;;4900373;29;20362;-65
2023/12/06 09:41:32;;;;;;;;;;;;;;;;;;4929498;28;19926;-67
2023/12/06 09:43:59;;;;;;;;;;;;;;;;;;4928848;28;20386;-66
2023/12/06 09:46:24;;;;;;;;;;;;;;;;;;4934540;28;19922;-66
2023/12/06 09:48:52;;;;;;;;;;;;;;;;;;4900753;28;19999;-65
2023/12/06 09:51:17;;;;;;;;;;;;;;;;;;4945668;28;20374;-67
2023/12/06 09:53:42;;;;;;;;;;;;;;;;;;4926652;28;19918;-66
2023/12/06 09:56:08;;;;;;;;;;;;;;;;;;4917858;28;20298;-66
2023/12/06 09:58:33;;;;;;;;;;;;;;;;;;4933351;28;19922;-66
2023/12/06 10:00:59;;;;;;;;;;;;;;;;;;4897247;28;20382;-65
2023/12/06 10:03:27;;;;;;;;;;;;;;;;;;4929652;28;20376;-67
2023/12/06 10:05:55;;;;;;;;;;;;;;;;;;4916155;28;20419;-66
2023/12/06 10:08:26;;;;;;;;;;;;;;;;;;4910591;28;19927;-66
2023/12/06 10:10:51;;;;;;;;;;;;;;;;;;4906439;29;19918;-67
2023/12/06 10:13:19;;;;;;;;;;;;;;;;;;4929136;28;20101;-67
2023/12/06 10:15:45;;;;;;;;;;;;;;;;;;4913269;28;20712;-66
2023/12/06 10:18:13;;;;;;;;;;;;;;;;;;4931564;28;19926;-66
2023/12/06 10:20:39;;;;;;;;;;;;;;;;;;4913296;28;20264;-66
2023/12/06 10:23:06;;;;;;;;;;;;;;;;;;4912614;28;19923;-66
2023/12/06 10:25:32;;;;;;;;;;;;;;;;;;4913691;28;20036;-66
2023/12/06 10:27:57;;;;;;;;;;;;;;;;;;4910648;29;19929;-67
2023/12/06 10:30:25;;;;;;;;;;;;;;;;;;4923468;28;20378;-66
2023/12/06 10:32:53;;;;;;;;;;;;;;;;;;4905412;28;20045;-66
2023/12/06 10:35:20;;;;;;;;;;;;;;;;;;4927904;28;19981;-66
2023/12/06 10:37:46;;;;;;;;;;;;;;;;;;4938435;28;19919;-67
2023/12/06 10:40:11;;;;;;;;;;;;;;;;;;4931433;28;19933;-67
2023/12/06 10:42:37;;;;;;;;;;;;;;;;;;4908339;28;20386;-67
2023/12/06 10:45:02;;;;;;;;;;;;;;;;;;4911014;28;19929;-66
2023/12/06 10:47:28;;;;;;;;;;;;;;;;;;4900025;29;19919;-66
2023/12/06 10:49:53;;;;;;;;;;;;;;;;;;4931648;28;19941;-66
2023/12/06 10:52:19;;;;;;;;;;;;;;;;;;4941141;28;19986;-66
2023/12/06 10:54:44;;;;;;;;;;;;;;;;;;4931026;28;21582;-66
2023/12/06 10:57:09;;;;;;;;;;;;;;;;;;4943125;28;19927;-67
2023/12/06 10:59:35;;;;;;;;;;;;;;;;;;4913015;28;19926;-66
2023/12/06 11:02:00;;;;;;;;;;;;;;;;;;4897845;28;20010;-67
2023/12/06 11:04:25;;;;;;;;;;;;;;;;;;4941947;28;19961;-67
2023/12/06 11:06:53;;;;;;;;;;;;;;;;;;4893314;29;19933;-69
2023/12/06 11:09:22;;;;;;;;;;;;;;;;;;4910069;28;19933;-68
2023/12/06 11:11:50;;;;;;;;;;;;;;;;;;4888011;28;19946;-68
2023/12/06 11:14:17;;;;;;;;;;;;;;;;;;4929984;28;20395;-68
2023/12/06 11:16:43;;;;;;;;;;;;;;;;;;4930946;28;19979;-68
2023/12/06 11:19:12;;;;;;;;;;;;;;;;;;4930795;28;20679;-68
2023/12/06 11:21:37;;;;;;;;;;;;;;;;;;4906206;29;19925;-67
2023/12/06 11:24:05;;;;;;;;;;;;;;;;;;4896585;28;20139;-67
2023/12/06 11:26:30;;;;;;;;;;;;;;;;;;4909260;28;19928;-67
2023/12/06 11:28:58;;;;;;;;;;;;;;;;;;4899446;29;19965;-67
2023/12/06 11:31:26;;;;;;;;;;;;;;;;;;4927641;28;19923;-67
2023/12/06 11:33:55;;;;;;;;;;;;;;;;;;4924115;28;20027;-66
2023/12/06 11:36:26;;;;;;;;;;;;;;;;;;4911908;28;19922;-66
2023/12/06 11:38:51;;;;;;;;;;;;;;;;;;4941339;28;20469;-67
2023/12/06 11:41:17;;;;;;;;;;;;;;;;;;4912572;28;19930;-67
2023/12/06 11:43:42;;;;;;;;;;;;;;;;;;4910338;29;19926;-68
2023/12/06 11:46:10;;;;;;;;;;;;;;;;;;4909958;28;19922;-67
2023/12/06 11:48:37;;;;;;;;;;;;;;;;;;4910985;29;20286;-68
2023/12/06 11:51:06;;;;;;;;;;;;;;;;;;4922831;28;19923;-68
2023/12/06 11:53:31;;;;;;;;;;;;;;;;;;4893144;28;20290;-68
2023/12/06 11:55:56;;;;;;;;;;;;;;;;;;4912099;29;19933;-69
2023/12/06 11:58:24;;;;;;;;;;;;;;;;;;4928194;28;19919;-68
2023/12/06 12:00:53;;;;;;;;;;;;;;;;;;4911628;28;19993;-68
2023/12/06 12:03:18;;;;;;;;;;;;;;;;;;4910921;28;19929;-68
2023/12/06 12:05:46;;;;;;;;;;;;;;;;;;4923576;28;20366;-69
2023/12/06 12:08:11;;;;;;;;;;;;;;;;;;4896423;28;19923;-67
2023/12/06 12:10:37;;;;;;;;;;;;;;;;;;4939711;28;19922;-68
2023/12/06 12:13:02;;;;;;;;;;;;;;;;;;4923739;28;19923;-67
2023/12/06 12:15:30;;;;;;;;;;;;;;;;;;4896974;28;19941;-68
2023/12/06 12:17:55;;;;;;;;;;;;;;;;;;4907078;29;19928;-67
2023/12/06 12:20:23;;;;;;;;;;;;;;;;;;4908217;28;19919;-68
2023/12/06 12:22:49;;;;;;;;;;;;;;;;;;4909624;28;20378;-67
2023/12/06 12:25:15;;;;;;;;;;;;;;;;;;4938813;28;19950;-67
2023/12/06 12:27:44;;;;;;;;;;;;;;;;;;4894195;29;20506;-69
2023/12/06 12:30:15;;;;;;;;;;;;;;;;;;4940380;28;19918;-69
2023/12/06 12:32:40;;;;;;;;;;;;;;;;;;4910247;28;19922;-67
2023/12/06 12:35:05;;;;;;;;;;;;;;;;;;4922263;28;19918;-68
2023/12/06 12:37:34;;;;;;;;;;;;;;;;;;4909797;28;20229;-68
2023/12/06 12:40:01;;;;;;;;;;;;;;;;;;4893615;29;20040;-68
2023/12/06 12:42:30;;;;;;;;;;;;;;;;;;4909301;28;19928;-69
2023/12/06 12:44:55;;;;;;;;;;;;;;;;;;4919122;28;20164;-67
2023/12/06 12:47:20;;;;;;;;;;;;;;;;;;4909822;28;19922;-70
2023/12/06 12:49:48;;;;;;;;;;;;;;;;;;4938501;28;21790;-67
2023/12/06 12:52:14;;;;;;;;;;;;;;;;;;4929386;28;19933;-68
2023/12/06 12:54:44;;;;;;;;;;;;;;;;;;4919925;28;20430;-68
2023/12/06 12:57:09;;;;;;;;;;;;;;;;;;4927039;28;20310;-67
2023/12/06 12:59:39;;;;;;;;;;;;;;;;;;4910173;29;19977;-67
2023/12/06 13:02:05;;;;;;;;;;;;;;;;;;4941073;28;20331;-69
2023/12/06 13:04:30;;;;;;;;;;;;;;;;;;4926129;28;19922;-69
2023/12/06 13:06:55;;;;;;;;;;;;;;;;;;4934203;28;19923;-68
2023/12/06 13:09:21;;;;;;;;;;;;;;;;;;4933315;28;20222;-68
2023/12/06 13:11:46;;;;;;;;;;;;;;;;;;4907792;28;20406;-68
2023/12/06 13:14:15;;;;;;;;;;;;;;;;;;4931312;28;20298;-68
2023/12/06 13:16:41;;;;;;;;;;;;;;;;;;4913864;28;19949;-67
2023/12/06 13:19:06;;;;;;;;;;;;;;;;;;4942289;28;19962;-68
2023/12/06 13:21:33;;;;;;;;;;;;;;;;;;4913156;28;19922;-68
2023/12/06 13:23:59;;;;;;;;;;;;;;;;;;4898720;28;20298;-68
2023/12/06 13:26:24;;;;;;;;;;;;;;;;;;4911984;28;19934;-69
2023/12/06 13:28:52;;;;;;;;;;;;;;;;;;4913687;28;20401;-69
2023/12/06 13:31:21;;;;;;;;;;;;;;;;;;4932905;28;20525;-68
2023/12/06 13:33:46;;;;;;;;;;;;;;;;;;4941834;28;20041;-69
2023/12/06 13:36:16;;;;;;;;;;;;;;;;;;4900602;28;19934;-69
2023/12/06 13:38:45;;;;;;;;;;;;;;;;;;4924561;28;19923;-69
2023/12/06 13:41:13;;;;;;;;;;;;;;;;;;4940518;28;20022;-69
2023/12/06 13:43:41;;;;;;;;;;;;;;;;;;4905625;28;19923;-70
2023/12/06 13:46:07;;;;;;;;;;;;;;;;;;4925568;28;20408;-71
2023/12/06 13:48:33;;;;;;;;;;;;;;;;;;4942646;28;19922;-68
2023/12/06 13:51:03;;;;;;;;;;;;;;;;;;4899548;29;20313;-68
2023/12/06 13:53:28;;;;;;;;;;;;;;;;;;4897944;28;19923;-71
2023/12/06 13:55:56;;;;;;;;;;;;;;;;;;4925539;28;19926;-69
2023/12/06 13:58:23;;;;;;;;;;;;;;;;;;4929731;28;20518;-68
2023/12/06 14:00:48;;;;;;;;;;;;;;;;;;4897471;29;19926;-68
2023/12/06 14:03:16;;;;;;;;;;;;;;;;;;4931225;28;19954;-69
2023/12/06 14:05:41;;;;;;;;;;;;;;;;;;4908740;28;20496;-69
2023/12/06 14:08:07;;;;;;;;;;;;;;;;;;4924726;28;19926;-69
2023/12/06 14:10:32;;;;;;;;;;;;;;;;;;4942783;28;19961;-69
2023/12/06 14:12:58;;;;;;;;;;;;;;;;;;4921477;28;20020;-69
2023/12/06 14:15:25;;;;;;;;;;;;;;;;;;4930651;28;19951;-69
2023/12/06 14:17:56;;;;;;;;;;;;;;;;;;4913728;28;19925;-69
2023/12/06 14:20:26;;;;;;;;;;;;;;;;;;4938623;28;19929;-69
2023/12/06 14:22:54;;;;;;;;;;;;;;;;;;4930310;28;19922;-69
2023/12/06 14:25:20;;;;;;;;;;;;;;;;;;4912797;28;19923;-70
2023/12/06 14:27:47;;;;;;;;;;;;;;;;;;4941885;28;19973;-69
2023/12/06 14:30:14;;;;;;;;;;;;;;;;;;4929900;28;19919;-70
2023/12/06 14:32:39;;;;;;;;;;;;;;;;;;4923051;28;19941;-70
2023/12/06 14:35:05;;;;;;;;;;;;;;;;;;4924340;28;20371;-70
2023/12/06 14:37:30;;;;;;;;;;;;;;;;;;4899846;29;19944;-70
2023/12/06 14:40:00;;;;;;;;;;;;;;;;;;4930809;28;19952;-70
2023/12/06 14:42:31;;;;;;;;;;;;;;;;;;4925170;28;19937;-70
2023/12/06 14:44:59;;;;;;;;;;;;;;;;;;4913335;28;19915;-69
2023/12/06 14:47:24;;;;;;;;;;;;;;;;;;4929868;28;19926;-70
2023/12/06 14:49:49;;;;;;;;;;;;;;;;;;4913043;29;19922;-70
2023/12/06 14:52:15;;;;;;;;;;;;;;;;;;4929670;28;19941;-70
2023/12/06 14:54:42;;;;;;;;;;;;;;;;;;4914623;29;20005;-69
2023/12/06 14:57:10;;;;;;;;;;;;;;;;;;4910095;28;19982;-71
2023/12/06 14:59:49;;;;;;;;;;;;;;;;;;4938397;28;19941;-70
2023/12/06 15:02:20;;;;;;;;;;;;;;;;;;4932085;28;20401;-70
2023/12/06 15:04:45;;;;;;;;;;;;;;;;;;4923014;28;20842;-69
2023/12/06 15:07:11;;;;;;;;;;;;;;;;;;4912042;28;19922;-69
2023/12/06 15:09:40;;;;;;;;;;;;;;;;;;4908141;28;19933;-70
2023/12/06 15:12:27;;;;;;;;;;;;;;;;;;4931829;28;19949;-70
2023/12/06 15:14:51;;;;;;;;;;;;;;;;;;4910479;28;20019;-70
2023/12/06 15:20:40;;;;;;;;;;;;;;;;;;4929895;28;20014;-71
2023/12/06 15:32:10;;;;;;;;;;;;;;;;;;4913117;28;19925;-71
2023/12/06 15:34:37;;;;;;;;;;;;;;;;;;4910342;28;21549;-70
2023/12/06 15:37:05;;;;;;;;;;;;;;;;;;4939775;28;19915;-70
2023/12/06 15:39:31;;;;;;;;;;;;;;;;;;4925224;28;20437;-70
2023/12/06 15:48:29;;;;;;;;;;;;;;;;;;4937251;28;19929;-71
2023/12/06 15:50:55;;;;;;;;;;;;;;;;;;4923373;28;20100;-71
2023/12/06 15:53:20;;;;;;;;;;;;;;;;;;4927515;28;20309;-71
2023/12/06 15:55:48;;;;;;;;;;;;;;;;;;4898078;29;20079;-71
2023/12/06 15:58:14;;;;;;;;;;;;;;;;;;4897787;28;19919;-69
2023/12/06 16:00:39;;;;;;;;;;;;;;;;;;4893220;29;20311;-70
2023/12/06 16:03:07;;;;;;;;;;;;;;;;;;4920915;28;19922;-71
2023/12/06 16:05:32;;;;;;;;;;;;;;;;;;4910935;29;20329;-71
2023/12/06 16:07:58;;;;;;;;;;;;;;;;;;4922524;28;19968;-69
2023/12/06 16:10:23;;;;;;;;;;;;;;;;;;4921205;28;19928;-70
2023/12/06 16:12:48;;;;;;;;;;;;;;;;;;4923562;28;19965;-70
2023/12/06 16:15:13;;;;;;;;;;;;;;;;;;4920222;28;19922;-72
2023/12/06 16:17:39;;;;;;;;;;;;;;;;;;4930231;28;19920;-71
2023/12/06 16:20:04;;;;;;;;;;;;;;;;;;4929644;28;19966;-69
2023/12/06 16:22:30;;;;;;;;;;;;;;;;;;4920888;28;19969;-70
2023/12/06 16:24:55;;;;;;;;;;;;;;;;;;4910891;29;19989;-70
2023/12/06 16:27:20;;;;;;;;;;;;;;;;;;4912428;28;19922;-70
2023/12/06 16:29:48;;;;;;;;;;;;;;;;;;4927761;28;19957;-70
2023/12/06 16:32:13;;;;;;;;;;;;;;;;;;4911350;28;19996;-70
2023/12/06 16:34:38;;;;;;;;;;;;;;;;;;4928900;28;20386;-70
2023/12/06 16:37:04;;;;;;;;;;;;;;;;;;4898062;28;19953;-70
2023/12/06 16:42:46;;;;;;;;;;;;;;;;;;4932144;28;20034;-70
2023/12/06 16:45:11;;;;;;;;;;;;;;;;;;4901079;29;19936;-70
2023/12/06 16:47:37;;;;;;;;;;;;;;;;;;4926206;28;19929;-70
2023/12/06 16:50:05;;;;;;;;;;;;;;;;;;4929279;28;19929;-69
2023/12/06 16:52:33;;;;;;;;;;;;;;;;;;4933322;28;19972;-70
2023/12/06 16:54:58;;;;;;;;;;;;;;;;;;4933517;28;19926;-71
2023/12/06 16:57:23;;;;;;;;;;;;;;;;;;4932975;28;19915;-70
2023/12/06 16:59:51;;;;;;;;;;;;;;;;;;4925538;28;20299;-70
2023/12/06 17:02:19;;;;;;;;;;;;;;;;;;4913479;28;19998;-70
2023/12/06 17:04:44;;;;;;;;;;;;;;;;;;4927964;28;19922;-70
2023/12/06 17:07:09;;;;;;;;;;;;;;;;;;4932798;28;19922;-70
2023/12/06 17:09:34;;;;;;;;;;;;;;;;;;4931201;28;19936;-70
2023/12/06 17:12:01;;;;;;;;;;;;;;;;;;4933472;28;19922;-70
2023/12/06 17:14:29;;;;;;;;;;;;;;;;;;4908109;28;20060;-70
2023/12/06 17:16:55;;;;;;;;;;;;;;;;;;4923414;28;20289;-70
2023/12/06 17:19:21;;;;;;;;;;;;;;;;;;4931594;28;19923;-71
2023/12/06 17:21:49;;;;;;;;;;;;;;;;;;4912275;29;19929;-71
2023/12/06 17:24:15;;;;;;;;;;;;;;;;;;4899895;28;20249;-70
2023/12/06 17:26:40;;;;;;;;;;;;;;;;;;4899584;28;19923;-70
2023/12/06 17:29:06;;;;;;;;;;;;;;;;;;4926296;28;19922;-71
2023/12/06 17:31:31;;;;;;;;;;;;;;;;;;4912747;28;19922;-72
2023/12/06 17:33:56;;;;;;;;;;;;;;;;;;4943330;28;19957;-71
2023/12/06 17:36:22;;;;;;;;;;;;;;;;;;4924655;28;20118;-71
2023/12/06 17:38:50;;;;;;;;;;;;;;;;;;4913670;28;20091;-70
2023/12/06 17:41:15;;;;;;;;;;;;;;;;;;4895176;28;19922;-73
2023/12/06 17:43:41;;;;;;;;;;;;;;;;;;4913352;28;20182;-72
2023/12/06 17:46:06;;;;;;;;;;;;;;;;;;4901730;28;19969;-72
2023/12/06 17:48:31;;;;;;;;;;;;;;;;;;4911460;28;19926;-72
2023/12/06 17:50:59;;;;;;;;;;;;;;;;;;4926510;28;20028;-72
2023/12/06 17:53:24;;;;;;;;;;;;;;;;;;4930673;28;20463;-72
2023/12/06 17:55:50;;;;;;;;;;;;;;;;;;4914332;28;20889;-71
2023/12/06 17:58:15;;;;;;;;;;;;;;;;;;4899180;28;19962;-71
2023/12/06 18:00:41;;;;;;;;;;;;;;;;;;4941699;28;19957;-74
2023/12/06 18:03:06;;;;;;;;;;;;;;;;;;4913540;28;20014;-72